Latest Weather Observations for Applethorpe

IDQ60801

Issued at 2:08 pm EST Tuesday 26 July 2016 (issued every 30 minutes, with the page automatically refreshed every 10 minutes)

About weather observations | Map of weather stations | Latest weather observations for QLD | Other Formats
Station Details ID: 041175 Name: APPLETHORPE Lat: -28.62 Lon: 151.95 Height: 871.6 m
Data from the previous 72 hours. | See also: Recent months at Applethorpe
Date/Time
EST
Temp
°C
App
Temp
°C
Dew
Point
°C
Rel
Hum
%
Delta-T
°C
Wind Press
QNH
hPa
Press
MSL
hPa
Rain since
9am
mm
Dir  Spd
km/h
Gust
km/h
Spd
kts
Gust
kts
26/02:00pm 14.7 11.3 -0.3 36 6.6 WSW 7 11 4 6 1017.9 1018.1 0.0
26/01:30pm 14.3 10.5 -0.6 36 6.5 SW 9 17 5 9 1018.1 1018.3 0.0
26/01:00pm 14.1 10.0 -0.3 37 6.3 SW 11 17 6 9 1018.3 1018.5 0.0
26/12:30pm 14.3 10.1 -1.0 35 6.6 WSW 11 19 6 10 1019.0 1019.2 0.0
26/12:00pm 13.7 9.8 -1.7 34 6.5 WSW 9 17 5 9 1019.3 1019.5 0.0
26/11:30am 13.0 9.5 -2.5 34 6.4 WSW 6 13 3 7 1019.8 1020.0 0.0
26/11:00am 11.9 7.9 -2.6 36 5.9 WSW 9 15 5 8 1020.3 1020.5 0.0
26/10:30am 11.0 7.6 -0.9 43 5.0 WSW 7 15 4 8 1020.4 1020.6 0.0
26/10:00am 10.1 6.7 -0.7 47 4.5 WSW 7 11 4 6 1020.7 1021.0 0.0
26/09:30am 9.1 5.7 -0.9 49 4.1 SSW 7 13 4 7 1020.7 1021.0 0.0
26/09:00am 7.8 4.4 -0.5 56 3.4 SW 7 11 4 6 1020.4 1020.6 0.0
26/08:30am 6.7 2.9 -0.5 60 2.9 SW 9 15 5 8 1020.3 1020.5 0.0
26/08:00am 5.7 1.9 -0.5 64 2.5 SW 9 15 5 8 1020.0 1020.2 0.0
26/07:30am 4.4 0.6 -0.7 69 2.0 SW 9 13 5 7 1019.7 1019.8 0.0
26/07:00am 4.4 0.6 -0.7 69 2.0 SW 9 13 5 7 1019.7 1019.8 0.0
26/06:30am 4.7 0.5 -0.6 68 2.1 WSW 11 19 6 10 1019.7 1019.8 0.0
26/06:00am 5.0 0.9 -0.5 67 2.2 WSW 11 17 6 9 1019.3 1019.5 0.0
26/05:30am 5.1 1.0 -0.1 69 2.1 WSW 11 17 6 9 1019.0 1019.2 0.0
26/05:00am 5.4 1.3 0.0 68 2.2 SW 11 20 6 11 1018.9 1019.1 0.0
26/04:30am 5.6 1.5 -0.4 65 2.4 SW 11 20 6 11 1018.8 1019.0 0.0
26/04:00am 5.9 1.4 -0.6 63 2.6 SW 13 19 7 10 1018.7 1018.8 0.0
26/03:30am 6.0 1.9 -0.5 63 2.6 SW 11 19 6 10 1018.7 1018.8 0.0
26/03:00am 6.3 1.7 -0.7 61 2.8 SW 13 22 7 12 1018.7 1018.8 0.0
26/02:30am 6.0 1.9 -0.2 64 2.5 SW 11 20 6 11 1018.3 1018.5 0.0
26/02:00am 5.8 2.2 0.4 68 2.2 SW 9 15 5 8 1018.9 1019.1 0.0
26/01:30am 6.0 2.5 1.0 70 2.1 SW 9 15 5 8 1018.7 1018.8 0.0
26/01:00am 6.1 2.9 0.8 69 2.2 SW 7 15 4 8 1019.1 1019.3 0.0
26/12:30am 6.3 3.1 0.8 68 2.3 SW 7 13 4 7 1019.0 1019.2 0.0
26/12:00am 6.3 3.1 1.0 69 2.2 SW 7 13 4 7 1019.1 1019.3 0.0
 
Date/Time
EST
Temp
°C
App
Temp
°C
Dew
Point
°C
Rel
Hum
%
Delta-T
°C
Wind Press
QNH
hPa
Press
MSL
hPa
Rain since
9am
mm
Dir  Spd
km/h
Gust
km/h
Spd
kts
Gust
kts
25/11:30pm 6.4 3.2 0.9 68 2.3 SW 7 15 4 8 1019.2 1019.4 0.0
25/11:00pm 6.1 2.6 1.1 70 2.1 SW 9 17 5 9 1019.4 1019.6 0.0
25/10:30pm 6.5 3.1 1.6 71 2.1 SW 9 17 5 9 1019.2 1019.4 0.0
25/10:00pm 6.8 3.8 1.9 71 2.1 WSW 7 13 4 7 1019.3 1019.5 0.0
25/09:30pm 7.2 3.8 1.9 69 2.3 WSW 9 17 5 9 1019.2 1019.4 0.0
25/09:00pm 7.3 3.5 2.0 69 2.3 SW 11 19 6 10 1019.2 1019.4 0.0
25/08:30pm 7.4 4.0 1.8 67 2.4 SW 9 20 5 11 1019.3 1019.5 0.0
25/08:00pm 7.7 4.3 1.7 66 2.6 SW 9 19 5 10 1019.2 1019.4 0.0
25/07:30pm 8.1 4.2 1.3 62 2.9 WSW 11 22 6 12 1019.0 1019.2 0.0
25/07:00pm 8.3 4.0 1.3 61 3.0 WSW 13 20 7 11 1018.6 1018.7 0.0
25/06:30pm 8.5 5.0 1.3 60 3.1 WSW 9 17 5 9 1018.6 1018.7 0.0
25/06:00pm 8.8 4.9 1.1 58 3.3 WSW 11 17 6 9 1018.2 1018.4 0.0
25/05:30pm 9.1 5.6 1.0 57 3.5 W 9 17 5 9 1018.0 1018.2 0.0
25/05:00pm 9.8 6.3 1.3 55 3.7 WSW 9 20 5 11 1017.9 1018.1 0.0
25/04:30pm 10.9 6.6 0.8 49 4.4 WSW 13 22 7 12 1017.7 1017.8 0.0
25/04:00pm 11.6 6.7 -0.3 44 5.1 WSW 15 24 8 13 1017.7 1017.8 0.0
25/03:30pm 12.2 7.5 1.2 47 4.9 WSW 15 26 8 14 1017.4 1017.5 0.0
25/03:00pm 12.4 7.4 1.2 46 5.0 SW 17 26 9 14 1017.2 1017.3 0.0
25/02:30pm 12.2 6.7 0.3 44 5.2 WSW 19 30 10 16 1017.0 1017.2 0.0
25/02:00pm 12.0 6.9 0.6 45 5.0 WSW 17 28 9 15 1017.2 1017.3 0.0
25/01:30pm 12.1 6.9 0.1 43 5.2 SW 17 33 9 18 1017.3 1017.4 0.0
25/01:00pm 11.5 5.9 -0.2 44 5.0 WSW 19 37 10 20 1017.5 1017.6 0.0
25/12:30pm 11.1 5.3 -0.4 45 4.9 WSW 20 35 11 19 1017.8 1018.0 0.0
25/12:00pm 12.2 7.0 0.3 44 5.2 WSW 17 30 9 16 1018.2 1018.4 0.0
25/11:30am 11.3 5.1 -0.5 44 5.0 WSW 22 35 12 19 1018.7 1018.8 0.0
25/11:00am 11.1 5.3 -0.1 46 4.8 WSW 20 33 11 18 1018.9 1019.1 0.0
25/10:30am 10.9 5.8 0.8 49 4.4 WSW 17 30 9 16 1019.3 1019.5 0.0
25/10:00am 10.9 6.9 9.2 89 0.9 WSW 20 33 11 18 1019.3 1019.5 0.0
25/09:30am 9.6 4.1 0.8 54 3.8 WSW 19 32 10 17 1019.1 1019.3 0.0
25/09:00am 8.6 2.9 0.3 56 3.5 WSW 20 32 11 17 1019.1 1019.3 0.0
25/08:30am 7.7 2.2 0.8 61 2.9 WSW 19 30 10 16 1018.9 1019.1 0.0
25/08:00am 6.8 1.7 0.8 65 2.5 WSW 17 24 9 13 1018.7 1018.8 0.0
25/07:30am 6.1 1.0 0.8 69 2.2 WSW 17 30 9 16 1018.3 1018.5 0.0
25/07:00am 5.3 0.5 0.4 70 2.0 WSW 15 24 8 13 1018.1 1018.3 0.0
25/06:30am 4.9 0.5 0.5 73 1.8 WSW 13 20 7 11 1017.9 1018.1 0.0
25/06:00am 4.9 0.6 0.8 75 1.7 WSW 13 22 7 12 1017.6 1017.7 0.0
25/05:30am 4.8 0.9 0.9 76 1.6 SW 11 19 6 10 1017.4 1017.5 0.0
25/05:00am 4.6 1.1 1.2 78 1.4 SW 9 19 5 10 1017.2 1017.3 0.0
25/04:30am 5.0 0.7 0.9 75 1.7 SW 13 20 7 11 1016.7 1016.8 0.0
25/04:00am 5.1 0.8 0.7 73 1.8 WSW 13 19 7 10 1016.7 1016.8 0.0
25/03:30am 5.3 0.6 0.7 72 1.9 WSW 15 20 8 11 1016.9 1017.1 0.0
25/03:00am 5.5 0.8 0.9 72 1.9 SW 15 24 8 13 1016.7 1016.8 0.0
25/02:30am 6.0 1.3 0.7 69 2.2 SW 15 24 8 13 1017.0 1017.2 0.0
25/02:00am 6.0 1.7 0.7 69 2.2 WSW 13 20 7 11 1017.2 1017.3 0.0
25/01:30am 6.0 1.9 0.1 66 2.4 WSW 11 17 6 9 1017.3 1017.4 0.0
25/01:00am 6.1 2.0 0.0 65 2.5 WSW 11 20 6 11 1017.3 1017.4 0.0
25/12:30am 6.4 2.3 -0.2 62 2.7 WSW 11 17 6 9 1017.3 1017.4 0.0
25/12:00am 7.0 2.9 -0.3 60 3.0 WSW 11 19 6 10 1017.3 1017.4 0.0
 
Date/Time
EST
Temp
°C
App
Temp
°C
Dew
Point
°C
Rel
Hum
%
Delta-T
°C
Wind Press
QNH
hPa
Press
MSL
hPa
Rain since
9am
mm
Dir  Spd
km/h
Gust
km/h
Spd
kts
Gust
kts
24/11:30pm 6.6 2.5 -0.3 61 2.8 WSW 11 15 6 8 1017.5 1017.6 0.0
24/11:00pm 7.0 3.2 -0.6 58 3.1 WSW 9 15 5 8 1017.5 1017.6 0.0
24/10:30pm 7.3 3.9 -0.9 56 3.3 WSW 7 13 4 7 1017.5 1017.6 0.0
24/10:00pm 7.5 3.7 -0.9 55 3.4 WSW 9 13 5 7 1017.3 1017.4 0.0
24/09:30pm 7.6 4.2 -0.8 55 3.4 W 7 11 4 6 1017.3 1017.4 0.0
24/09:00pm 7.3 3.9 -0.5 57 3.2 W 7 13 4 7 1017.0 1017.2 0.0
24/08:30pm 7.3 4.1 -0.2 59 3.1 W 6 9 3 5 1016.9 1017.1 0.0
24/08:00pm 7.4 4.3 0.2 60 3.0 W 6 9 3 5 1016.4 1016.5 0.0
24/07:30pm 7.9 4.5 -0.3 56 3.4 WSW 7 13 4 7 1016.6 1016.7 0.0
24/07:00pm 7.9 4.7 -0.6 55 3.5 WSW 6 9 3 5 1016.3 1016.4 0.0
24/06:30pm 7.9 4.4 -1.0 53 3.6 WSW 7 11 4 6 1016.0 1016.1 0.0
24/06:00pm 8.2 4.2 -2.1 48 4.1 WSW 9 15 5 8 1016.0 1016.1 0.0
24/05:30pm 8.9 4.9 -2.1 46 4.4 WSW 9 17 5 9 1015.7 1015.8 0.0
24/05:00pm 9.4 5.4 -2.0 45 4.6 WSW 9 17 5 9 1015.5 1015.6 0.0
24/04:30pm 10.2 5.8 -2.1 42 5.0 WSW 11 20 6 11 1015.3 1015.4 0.0
24/04:00pm 11.6 7.5 -2.7 36 5.8 W 9 17 5 9 1015.0 1015.1 0.0
24/03:30pm 12.8 8.5 -4.8 29 6.9 W 9 19 5 10 1014.8 1014.8 0.0
24/03:00pm 14.1 9.7 -6.1 24 7.8 W 9 19 5 10 1014.4 1014.5 0.0
24/02:30pm 14.7 9.7 -8.1 20 8.5 W 11 19 6 10 1014.6 1014.7 0.0
24/02:00pm 14.7 10.2 -11.7 15 9.1 WNW 7 17 4 9 1014.6 1014.7 0.0
24/01:30pm 14.7 10.1 -7.6 20 8.4 WSW 9 13 5 7 1015.3 1015.4 0.0
24/01:00pm 14.5 10.5 -7.6 21 8.3 W 6 13 3 7 1015.5 1015.6 0.0
24/12:30pm 15.1 10.7 -9.9 17 9.0 WSW 7 17 4 9 1016.1 1016.2 0.0
24/12:00pm 14.3 10.8 -6.1 24 7.9 WNW 4 7 2 4 1016.3 1016.4 0.0
24/11:30am 12.7 9.1 -3.8 31 6.6 SW 6 9 3 5 1016.7 1016.8 0.0
24/11:00am 12.2 9.0 -3.2 34 6.2 SSW 4 7 2 4 1017.0 1017.2 0.0
24/10:30am 11.8 8.9 -4.3 32 6.3 W 2 4 1 2 1017.3 1017.4 0.0
24/10:00am 10.7 7.9 -3.1 38 5.5 SW 2 4 1 2 1017.6 1017.7 0.0
24/09:30am 9.5 7.3 -1.6 46 4.5 CALM 0 0 0 0 1017.5 1017.6 0.0
24/09:00am 7.5 5.1 -0.6 56 3.3 NE 2 4 1 2 1017.2 1017.3 0.0
24/08:30am 6.5 4.0 1.6 71 2.1 NNE 4 7 2 4 1017.3 1017.4 0.0
24/08:00am 5.4 2.9 1.6 76 1.6 W 4 6 2 3 1016.9 1017.1 0.0
24/07:30am 4.9 2.7 1.3 77 1.5 SSW 2 6 1 3 1016.5 1016.6 0.0
24/07:00am 4.5 2.0 1.4 80 1.3 WSW 4 6 2 3 1016.6 1016.7 0.0
24/06:30am 4.4 2.2 1.3 80 1.3 SSW 2 6 1 3 1016.0 1016.1 0.0
24/06:00am 5.3 2.3 1.0 74 1.8 SW 6 11 3 6 1016.3 1016.4 0.0
24/05:30am 5.7 1.7 0.3 68 2.2 SW 11 17 6 9 1015.5 1015.6 0.0
24/05:00am 4.9 1.9 1.0 76 1.6 SW 6 9 3 5 1015.1 1015.2 0.0
24/04:30am 5.2 2.2 0.8 73 1.8 WSW 6 9 3 5 1015.4 1015.5 0.0
24/04:00am 5.4 2.4 0.5 71 2.0 SW 6 9 3 5 1014.9 1015.0 0.0
24/03:30am 5.6 2.5 0.2 68 2.2 SSW 6 9 3 5 1015.1 1015.2 0.0
24/03:00am 6.3 2.9 -0.4 62 2.7 SW 7 15 4 8 1015.3 1015.4 0.0
24/02:30am 6.3 2.2 -0.4 62 2.7 SW 11 17 6 9 1015.3 1015.4 0.0
24/02:00am 6.3 2.9 -0.4 62 2.7 SW 7 13 4 7 1015.3 1015.4 0.0
24/01:30am 6.0 2.3 -0.1 65 2.5 SW 9 15 5 8 1015.3 1015.4 0.0
24/01:00am 5.9 1.8 -0.3 64 2.5 SW 11 19 6 10 1015.5 1015.6 0.0
24/12:30am 6.1 1.6 -0.6 62 2.7 SW 13 20 7 11 1015.3 1015.4 0.0
24/12:00am 6.5 1.9 -1.0 59 3.0 SW 13 22 7 12 1015.3 1015.4 0.0
 
Date/Time
EST
Temp
°C
App
Temp
°C
Dew
Point
°C
Rel
Hum
%
Delta-T
°C
Wind Press
QNH
hPa
Press
MSL
hPa
Rain since
9am
mm
Dir  Spd
km/h
Gust
km/h
Spd
kts
Gust
kts
23/11:30pm 6.5 1.5 -1.0 59 3.0 SW 15 24 8 13 1015.1 1015.2 0.0
23/11:00pm 6.7 2.1 -1.3 56 3.2 WSW 13 22 7 12 1015.0 1015.1 0.0
23/10:30pm 7.0 1.9 -1.6 54 3.4 WSW 15 20 8 11 1015.1 1015.2 0.0
23/10:00pm 7.5 2.9 -1.2 54 3.5 SW 13 22 7 12 1015.3 1015.4 0.0
23/09:30pm 7.7 3.3 0.6 61 3.0 WSW 13 20 7 11 1015.0 1015.1 0.0
23/09:00pm 8.3 3.3 1.6 62 2.9 WSW 17 26 9 14 1014.9 1015.0 0.0
23/08:30pm 8.6 4.5 2.0 63 2.9 WSW 13 22 7 12 1014.9 1015.0 0.0
23/08:00pm 9.0 4.9 2.2 62 3.0 WSW 13 24 7 13 1014.8 1014.8 0.0
23/07:30pm 9.2 5.4 1.9 60 3.2 WSW 11 20 6 11 1014.5 1014.6 0.0
23/07:00pm 9.8 5.5 1.3 55 3.7 WSW 13 26 7 14 1014.2 1014.3 0.0
23/06:30pm 10.0 5.7 0.7 52 4.0 WSW 13 20 7 11 1013.9 1014.0 0.0
23/06:00pm 10.5 5.8 0.9 51 4.2 WSW 15 32 8 17 1013.1 1013.2 0.0
23/05:30pm 11.2 6.1 0.7 48 4.6 WSW 17 35 9 19 1013.3 1013.4 0.0
23/05:00pm 12.1 7.1 1.4 48 4.8 W 17 28 9 15 1012.5 1012.5 0.0
23/04:30pm 13.0 7.6 1.2 44 5.3 W 19 37 10 20 1012.3 1012.3 0.0
23/04:00pm 14.0 8.4 1.2 41 5.8 W 20 37 11 20 1012.0 1012.1 0.0
23/03:30pm 14.9 8.6 1.7 41 6.1 W 24 43 13 23 1011.9 1012.0 0.0
23/03:00pm 15.1 8.6 2.6 43 5.9 W 26 50 14 27 1011.7 1011.7 0.0
23/02:36pm 15.2 8.2 2.1 41 6.1 W 28 52 15 28 1011.7 1011.7 0.0
23/02:30pm 15.5 9.9 3.2 43 5.9 W 22 43 12 23 1011.6 1011.6 0.0

Other Formats:

Comma delimited format used in spreadsheet applications
http://www.bom.gov.au/fwo/IDQ60801/IDQ60801.94553.axf

JavaScript Object Notation format (JSON) in row-major order
http://www.bom.gov.au/fwo/IDQ60801/IDQ60801.94553.json